sensor_id;sensor_type;location;lat;lon;timestamp;P1;durP1;ratioP1;P2;durP2;ratioP2
11439;SDS011;5776;51.814;4.510;2023-11-22T00:01:03;11.43;;;5.83;;
11439;SDS011;5776;51.814;4.510;2023-11-22T00:03:29;7.27;;;5.50;;
11439;SDS011;5776;51.814;4.510;2023-11-22T00:05:55;8.17;;;5.23;;
11439;SDS011;5776;51.814;4.510;2023-11-22T00:08:21;9.10;;;5.13;;
11439;SDS011;5776;51.814;4.510;2023-11-22T00:10:47;6.07;;;4.03;;
11439;SDS011;5776;51.814;4.510;2023-11-22T00:13:13;6.73;;;4.27;;
11439;SDS011;5776;51.814;4.510;2023-11-22T00:15:39;7.40;;;5.57;;
11439;SDS011;5776;51.814;4.510;2023-11-22T00:18:05;7.73;;;5.40;;
11439;SDS011;5776;51.814;4.510;2023-11-22T00:20:31;10.70;;;6.00;;
11439;SDS011;5776;51.814;4.510;2023-11-22T00:22:59;8.47;;;5.60;;
11439;SDS011;5776;51.814;4.510;2023-11-22T00:25:25;9.30;;;5.77;;
11439;SDS011;5776;51.814;4.510;2023-11-22T00:27:51;7.93;;;5.20;;
11439;SDS011;5776;51.814;4.510;2023-11-22T00:30:17;6.37;;;3.87;;
11439;SDS011;5776;51.814;4.510;2023-11-22T00:32:42;9.40;;;5.73;;
11439;SDS011;5776;51.814;4.510;2023-11-22T00:35:08;7.47;;;5.20;;
11439;SDS011;5776;51.814;4.510;2023-11-22T00:37:34;7.13;;;4.33;;
11439;SDS011;5776;51.814;4.510;2023-11-22T00:40:01;9.60;;;6.30;;
11439;SDS011;5776;51.814;4.510;2023-11-22T00:42:39;10.53;;;6.10;;
11439;SDS011;5776;51.814;4.510;2023-11-22T00:45:07;9.03;;;5.83;;
11439;SDS011;5776;51.814;4.510;2023-11-22T00:47:34;9.43;;;6.40;;
11439;SDS011;5776;51.814;4.510;2023-11-22T00:50:00;9.00;;;5.70;;
11439;SDS011;5776;51.814;4.510;2023-11-22T00:52:26;7.40;;;5.23;;
11439;SDS011;5776;51.814;4.510;2023-11-22T00:54:52;9.23;;;5.33;;
11439;SDS011;5776;51.814;4.510;2023-11-22T00:57:20;9.73;;;5.57;;
11439;SDS011;5776;51.814;4.510;2023-11-22T00:59:45;7.20;;;4.00;;
11439;SDS011;5776;51.814;4.510;2023-11-22T01:02:11;10.40;;;5.77;;
11439;SDS011;5776;51.814;4.510;2023-11-22T01:04:39;8.67;;;5.20;;
11439;SDS011;5776;51.814;4.510;2023-11-22T01:07:05;9.83;;;4.57;;
11439;SDS011;5776;51.814;4.510;2023-11-22T01:09:32;7.90;;;5.10;;
11439;SDS011;5776;51.814;4.510;2023-11-22T01:11:58;6.20;;;4.80;;
11439;SDS011;5776;51.814;4.510;2023-11-22T01:14:25;9.33;;;5.40;;
11439;SDS011;5776;51.814;4.510;2023-11-22T01:16:52;7.60;;;5.20;;
11439;SDS011;5776;51.814;4.510;2023-11-22T01:19:18;8.43;;;5.73;;
11439;SDS011;5776;51.814;4.510;2023-11-22T01:21:44;8.87;;;5.40;;
11439;SDS011;5776;51.814;4.510;2023-11-22T01:24:11;7.60;;;4.73;;
11439;SDS011;5776;51.814;4.510;2023-11-22T01:26:37;10.90;;;5.73;;
11439;SDS011;5776;51.814;4.510;2023-11-22T01:29:04;9.00;;;5.93;;
11439;SDS011;5776;51.814;4.510;2023-11-22T01:31:30;9.53;;;5.00;;
11439;SDS011;5776;51.814;4.510;2023-11-22T01:33:57;8.20;;;5.33;;
11439;SDS011;5776;51.814;4.510;2023-11-22T01:36:24;9.77;;;5.40;;
11439;SDS011;5776;51.814;4.510;2023-11-22T01:38:51;9.20;;;5.47;;
11439;SDS011;5776;51.814;4.510;2023-11-22T01:41:17;7.23;;;5.00;;
11439;SDS011;5776;51.814;4.510;2023-11-22T01:43:43;8.20;;;5.50;;
11439;SDS011;5776;51.814;4.510;2023-11-22T01:46:21;7.93;;;4.90;;
11439;SDS011;5776;51.814;4.510;2023-11-22T01:48:49;9.00;;;5.53;;
11439;SDS011;5776;51.814;4.510;2023-11-22T01:51:23;7.70;;;4.87;;
11439;SDS011;5776;51.814;4.510;2023-11-22T01:53:51;8.73;;;5.33;;
11439;SDS011;5776;51.814;4.510;2023-11-22T01:56:19;9.10;;;5.63;;
11439;SDS011;5776;51.814;4.510;2023-11-22T01:58:46;7.00;;;4.93;;
11439;SDS011;5776;51.814;4.510;2023-11-22T02:01:13;10.17;;;5.77;;
11439;SDS011;5776;51.814;4.510;2023-11-22T02:03:38;7.20;;;5.23;;
11439;SDS011;5776;51.814;4.510;2023-11-22T02:06:05;11.77;;;5.83;;
11439;SDS011;5776;51.814;4.510;2023-11-22T02:08:32;8.50;;;5.13;;
11439;SDS011;5776;51.814;4.510;2023-11-22T02:10:58;8.30;;;5.67;;
11439;SDS011;5776;51.814;4.510;2023-11-22T02:13:25;11.20;;;5.70;;
11439;SDS011;5776;51.814;4.510;2023-11-22T02:15:52;9.07;;;6.17;;
11439;SDS011;5776;51.814;4.510;2023-11-22T02:18:22;10.23;;;5.93;;
11439;SDS011;5776;51.814;4.510;2023-11-22T02:20:49;8.90;;;6.23;;
11439;SDS011;5776;51.814;4.510;2023-11-22T02:23:15;8.60;;;5.43;;
11439;SDS011;5776;51.814;4.510;2023-11-22T02:25:41;8.83;;;6.13;;
11439;SDS011;5776;51.814;4.510;2023-11-22T02:28:07;10.53;;;6.20;;
11439;SDS011;5776;51.814;4.510;2023-11-22T02:30:33;8.77;;;4.77;;
11439;SDS011;5776;51.814;4.510;2023-11-22T02:33:00;9.77;;;5.93;;
11439;SDS011;5776;51.814;4.510;2023-11-22T02:35:26;5.77;;;3.47;;
11439;SDS011;5776;51.814;4.510;2023-11-22T02:37:53;8.87;;;5.63;;
11439;SDS011;5776;51.814;4.510;2023-11-22T02:40:19;8.47;;;4.93;;
11439;SDS011;5776;51.814;4.510;2023-11-22T02:42:46;7.47;;;5.43;;
11439;SDS011;5776;51.814;4.510;2023-11-22T02:45:16;7.33;;;5.37;;
11439;SDS011;5776;51.814;4.510;2023-11-22T02:47:43;6.37;;;4.00;;
11439;SDS011;5776;51.814;4.510;2023-11-22T02:50:13;8.67;;;5.13;;
11439;SDS011;5776;51.814;4.510;2023-11-22T02:52:39;6.83;;;4.50;;
11439;SDS011;5776;51.814;4.510;2023-11-22T02:55:05;5.53;;;3.83;;
11439;SDS011;5776;51.814;4.510;2023-11-22T02:57:31;8.60;;;5.93;;
11439;SDS011;5776;51.814;4.510;2023-11-22T02:59:58;8.53;;;5.27;;
11439;SDS011;5776;51.814;4.510;2023-11-22T03:02:24;9.33;;;6.07;;
11439;SDS011;5776;51.814;4.510;2023-11-22T03:04:51;9.37;;;5.13;;
11439;SDS011;5776;51.814;4.510;2023-11-22T03:07:17;7.67;;;5.13;;
11439;SDS011;5776;51.814;4.510;2023-11-22T03:09:42;9.03;;;4.93;;
11439;SDS011;5776;51.814;4.510;2023-11-22T03:12:10;9.40;;;5.30;;
11439;SDS011;5776;51.814;4.510;2023-11-22T03:14:39;8.80;;;5.37;;
11439;SDS011;5776;51.814;4.510;2023-11-22T03:17:05;10.10;;;6.07;;
11439;SDS011;5776;51.814;4.510;2023-11-22T03:19:31;9.57;;;5.70;;
11439;SDS011;5776;51.814;4.510;2023-11-22T03:22:00;9.00;;;5.73;;
11439;SDS011;5776;51.814;4.510;2023-11-22T03:24:28;10.50;;;5.80;;
11439;SDS011;5776;51.814;4.510;2023-11-22T03:26:55;9.53;;;5.80;;
11439;SDS011;5776;51.814;4.510;2023-11-22T03:29:25;8.63;;;5.00;;
11439;SDS011;5776;51.814;4.510;2023-11-22T03:31:51;8.47;;;5.70;;
11439;SDS011;5776;51.814;4.510;2023-11-22T03:34:18;9.00;;;5.67;;
11439;SDS011;5776;51.814;4.510;2023-11-22T03:36:44;9.13;;;5.80;;
11439;SDS011;5776;51.814;4.510;2023-11-22T03:39:10;8.00;;;5.90;;
11439;SDS011;5776;51.814;4.510;2023-11-22T03:41:36;8.20;;;5.20;;
11439;SDS011;5776;51.814;4.510;2023-11-22T03:44:03;10.43;;;5.50;;
11439;SDS011;5776;51.814;4.510;2023-11-22T03:46:34;10.67;;;6.27;;
11439;SDS011;5776;51.814;4.510;2023-11-22T03:49:01;8.10;;;5.57;;
11439;SDS011;5776;51.814;4.510;2023-11-22T03:51:28;8.80;;;5.70;;
11439;SDS011;5776;51.814;4.510;2023-11-22T03:53:54;11.17;;;5.97;;
11439;SDS011;5776;51.814;4.510;2023-11-22T03:56:20;9.27;;;5.33;;
11439;SDS011;5776;51.814;4.510;2023-11-22T03:58:46;8.23;;;5.57;;
11439;SDS011;5776;51.814;4.510;2023-11-22T04:01:14;7.23;;;4.67;;
11439;SDS011;5776;51.814;4.510;2023-11-22T04:03:41;9.13;;;5.50;;
11439;SDS011;5776;51.814;4.510;2023-11-22T04:06:07;5.13;;;4.00;;
11439;SDS011;5776;51.814;4.510;2023-11-22T04:08:33;6.10;;;3.60;;
11439;SDS011;5776;51.814;4.510;2023-11-22T04:10:59;5.97;;;4.03;;
11439;SDS011;5776;51.814;4.510;2023-11-22T04:13:25;7.97;;;5.33;;
11439;SDS011;5776;51.814;4.510;2023-11-22T04:15:51;8.07;;;5.17;;
11439;SDS011;5776;51.814;4.510;2023-11-22T04:18:16;6.50;;;4.27;;
11439;SDS011;5776;51.814;4.510;2023-11-22T04:20:42;6.87;;;5.20;;
11439;SDS011;5776;51.814;4.510;2023-11-22T04:23:08;10.60;;;6.37;;
11439;SDS011;5776;51.814;4.510;2023-11-22T04:25:39;7.77;;;5.50;;
11439;SDS011;5776;51.814;4.510;2023-11-22T04:28:06;8.63;;;5.47;;
11439;SDS011;5776;51.814;4.510;2023-11-22T04:30:34;8.73;;;5.73;;
11439;SDS011;5776;51.814;4.510;2023-11-22T04:33:00;9.13;;;5.97;;
11439;SDS011;5776;51.814;4.510;2023-11-22T04:35:27;8.83;;;5.57;;
11439;SDS011;5776;51.814;4.510;2023-11-22T04:37:53;7.97;;;5.63;;
11439;SDS011;5776;51.814;4.510;2023-11-22T04:40:20;11.70;;;6.57;;
11439;SDS011;5776;51.814;4.510;2023-11-22T04:42:47;13.90;;;6.10;;
11439;SDS011;5776;51.814;4.510;2023-11-22T04:45:13;8.43;;;5.87;;
11439;SDS011;5776;51.814;4.510;2023-11-22T04:47:39;7.73;;;5.23;;
11439;SDS011;5776;51.814;4.510;2023-11-22T04:50:05;7.47;;;4.97;;
11439;SDS011;5776;51.814;4.510;2023-11-22T04:52:32;8.87;;;5.57;;
11439;SDS011;5776;51.814;4.510;2023-11-22T04:54:58;8.40;;;4.93;;
11439;SDS011;5776;51.814;4.510;2023-11-22T04:57:24;8.13;;;5.47;;
11439;SDS011;5776;51.814;4.510;2023-11-22T04:59:50;4.50;;;3.17;;
11439;SDS011;5776;51.814;4.510;2023-11-22T05:02:16;5.97;;;3.80;;
11439;SDS011;5776;51.814;4.510;2023-11-22T05:04:42;6.33;;;4.13;;
11439;SDS011;5776;51.814;4.510;2023-11-22T05:07:08;6.10;;;4.03;;
11439;SDS011;5776;51.814;4.510;2023-11-22T05:09:34;6.67;;;4.70;;
11439;SDS011;5776;51.814;4.510;2023-11-22T05:12:01;5.80;;;4.30;;
11439;SDS011;5776;51.814;4.510;2023-11-22T05:14:27;5.10;;;3.90;;
11439;SDS011;5776;51.814;4.510;2023-11-22T05:16:52;6.43;;;3.60;;
11439;SDS011;5776;51.814;4.510;2023-11-22T05:19:19;8.33;;;5.20;;
11439;SDS011;5776;51.814;4.510;2023-11-22T05:21:44;8.17;;;4.77;;
11439;SDS011;5776;51.814;4.510;2023-11-22T05:24:11;7.70;;;5.57;;
11439;SDS011;5776;51.814;4.510;2023-11-22T05:26:37;8.97;;;6.03;;
11439;SDS011;5776;51.814;4.510;2023-11-22T05:29:03;8.57;;;6.23;;
11439;SDS011;5776;51.814;4.510;2023-11-22T05:31:30;7.83;;;5.37;;
11439;SDS011;5776;51.814;4.510;2023-11-22T05:33:56;7.27;;;4.20;;
11439;SDS011;5776;51.814;4.510;2023-11-22T05:36:22;6.23;;;4.40;;
11439;SDS011;5776;51.814;4.510;2023-11-22T05:38:47;7.90;;;5.40;;
11439;SDS011;5776;51.814;4.510;2023-11-22T05:41:13;11.30;;;5.53;;
11439;SDS011;5776;51.814;4.510;2023-11-22T05:43:39;8.57;;;5.73;;
11439;SDS011;5776;51.814;4.510;2023-11-22T05:46:08;9.47;;;5.90;;
11439;SDS011;5776;51.814;4.510;2023-11-22T05:48:34;8.80;;;6.00;;
11439;SDS011;5776;51.814;4.510;2023-11-22T05:51:00;9.60;;;6.53;;
11439;SDS011;5776;51.814;4.510;2023-11-22T05:53:25;12.30;;;6.90;;
11439;SDS011;5776;51.814;4.510;2023-11-22T05:55:51;10.73;;;7.07;;
11439;SDS011;5776;51.814;4.510;2023-11-22T05:58:18;10.40;;;6.90;;
11439;SDS011;5776;51.814;4.510;2023-11-22T06:00:44;11.83;;;6.90;;
11439;SDS011;5776;51.814;4.510;2023-11-22T06:03:11;10.50;;;6.80;;
11439;SDS011;5776;51.814;4.510;2023-11-22T06:05:38;12.07;;;6.17;;
11439;SDS011;5776;51.814;4.510;2023-11-22T06:08:05;9.93;;;6.97;;
11439;SDS011;5776;51.814;4.510;2023-11-22T06:10:31;12.33;;;7.10;;
11439;SDS011;5776;51.814;4.510;2023-11-22T06:12:57;8.57;;;5.83;;
11439;SDS011;5776;51.814;4.510;2023-11-22T06:15:23;7.23;;;4.90;;
11439;SDS011;5776;51.814;4.510;2023-11-22T06:17:49;6.43;;;4.37;;
11439;SDS011;5776;51.814;4.510;2023-11-22T06:20:15;8.47;;;5.63;;
11439;SDS011;5776;51.814;4.510;2023-11-22T06:22:41;7.40;;;3.93;;
11439;SDS011;5776;51.814;4.510;2023-11-22T06:25:11;6.67;;;4.70;;
11439;SDS011;5776;51.814;4.510;2023-11-22T06:27:38;5.80;;;3.90;;
11439;SDS011;5776;51.814;4.510;2023-11-22T06:30:04;7.80;;;5.30;;
11439;SDS011;5776;51.814;4.510;2023-11-22T06:32:32;8.40;;;5.10;;
11439;SDS011;5776;51.814;4.510;2023-11-22T06:34:59;6.13;;;4.27;;
11439;SDS011;5776;51.814;4.510;2023-11-22T06:37:25;14.47;;;8.20;;
11439;SDS011;5776;51.814;4.510;2023-11-22T06:39:51;14.90;;;7.87;;
11439;SDS011;5776;51.814;4.510;2023-11-22T06:42:17;10.70;;;7.00;;
11439;SDS011;5776;51.814;4.510;2023-11-22T06:44:44;13.60;;;8.40;;
11439;SDS011;5776;51.814;4.510;2023-11-22T06:47:13;13.00;;;7.30;;
11439;SDS011;5776;51.814;4.510;2023-11-22T06:49:39;10.37;;;6.70;;
11439;SDS011;5776;51.814;4.510;2023-11-22T06:52:05;12.67;;;7.00;;
11439;SDS011;5776;51.814;4.510;2023-11-22T06:54:31;12.73;;;7.03;;
11439;SDS011;5776;51.814;4.510;2023-11-22T06:56:57;8.70;;;5.73;;
11439;SDS011;5776;51.814;4.510;2023-11-22T06:59:22;12.60;;;7.20;;
11439;SDS011;5776;51.814;4.510;2023-11-22T07:01:48;8.97;;;5.30;;
11439;SDS011;5776;51.814;4.510;2023-11-22T07:04:14;11.80;;;7.13;;
11439;SDS011;5776;51.814;4.510;2023-11-22T07:06:41;11.07;;;6.47;;
11439;SDS011;5776;51.814;4.510;2023-11-22T07:09:09;9.53;;;5.93;;
11439;SDS011;5776;51.814;4.510;2023-11-22T07:11:36;10.87;;;6.97;;
11439;SDS011;5776;51.814;4.510;2023-11-22T07:14:02;10.03;;;6.57;;
11439;SDS011;5776;51.814;4.510;2023-11-22T07:16:30;11.13;;;7.13;;
11439;SDS011;5776;51.814;4.510;2023-11-22T07:18:56;12.17;;;7.40;;
11439;SDS011;5776;51.814;4.510;2023-11-22T07:21:22;15.40;;;7.77;;
11439;SDS011;5776;51.814;4.510;2023-11-22T07:23:48;13.80;;;8.07;;
11439;SDS011;5776;51.814;4.510;2023-11-22T07:26:14;10.63;;;7.37;;
11439;SDS011;5776;51.814;4.510;2023-11-22T07:28:41;10.63;;;7.20;;
11439;SDS011;5776;51.814;4.510;2023-11-22T07:31:07;8.03;;;5.57;;
11439;SDS011;5776;51.814;4.510;2023-11-22T07:33:35;8.00;;;5.03;;
11439;SDS011;5776;51.814;4.510;2023-11-22T07:36:01;6.30;;;4.43;;
11439;SDS011;5776;51.814;4.510;2023-11-22T07:38:29;9.63;;;6.63;;
11439;SDS011;5776;51.814;4.510;2023-11-22T07:40:56;11.30;;;6.43;;
11439;SDS011;5776;51.814;4.510;2023-11-22T07:43:23;11.80;;;6.77;;
11439;SDS011;5776;51.814;4.510;2023-11-22T07:45:49;12.57;;;7.27;;
11439;SDS011;5776;51.814;4.510;2023-11-22T07:48:16;11.37;;;6.70;;
11439;SDS011;5776;51.814;4.510;2023-11-22T07:50:43;12.43;;;7.80;;
11439;SDS011;5776;51.814;4.510;2023-11-22T07:53:09;11.10;;;7.60;;
11439;SDS011;5776;51.814;4.510;2023-11-22T07:55:40;13.40;;;9.13;;
11439;SDS011;5776;51.814;4.510;2023-11-22T07:58:07;12.53;;;6.90;;
11439;SDS011;5776;51.814;4.510;2023-11-22T08:00:34;12.63;;;7.20;;
11439;SDS011;5776;51.814;4.510;2023-11-22T08:03:00;11.90;;;7.77;;
11439;SDS011;5776;51.814;4.510;2023-11-22T08:05:31;13.00;;;8.47;;
11439;SDS011;5776;51.814;4.510;2023-11-22T08:08:04;13.30;;;9.07;;
11439;SDS011;5776;51.814;4.510;2023-11-22T08:10:34;14.80;;;9.60;;
11439;SDS011;5776;51.814;4.510;2023-11-22T08:13:00;12.47;;;8.33;;
11439;SDS011;5776;51.814;4.510;2023-11-22T08:15:27;13.43;;;7.57;;
11439;SDS011;5776;51.814;4.510;2023-11-22T08:17:54;11.90;;;8.03;;
11439;SDS011;5776;51.814;4.510;2023-11-22T08:20:20;12.57;;;8.40;;
11439;SDS011;5776;51.814;4.510;2023-11-22T08:22:48;11.20;;;7.80;;
11439;SDS011;5776;51.814;4.510;2023-11-22T08:25:17;12.70;;;8.03;;
11439;SDS011;5776;51.814;4.510;2023-11-22T08:27:44;13.73;;;7.97;;
11439;SDS011;5776;51.814;4.510;2023-11-22T08:30:10;11.40;;;7.90;;
11439;SDS011;5776;51.814;4.510;2023-11-22T08:32:42;13.60;;;8.03;;
11439;SDS011;5776;51.814;4.510;2023-11-22T08:35:09;12.63;;;6.63;;
11439;SDS011;5776;51.814;4.510;2023-11-22T08:37:35;8.60;;;6.03;;
11439;SDS011;5776;51.814;4.510;2023-11-22T08:40:06;10.43;;;5.53;;
11439;SDS011;5776;51.814;4.510;2023-11-22T08:42:35;10.70;;;7.33;;
11439;SDS011;5776;51.814;4.510;2023-11-22T08:45:02;8.77;;;6.00;;
11439;SDS011;5776;51.814;4.510;2023-11-22T08:47:29;10.13;;;6.80;;
11439;SDS011;5776;51.814;4.510;2023-11-22T08:49:56;8.50;;;6.20;;
11439;SDS011;5776;51.814;4.510;2023-11-22T08:52:23;11.37;;;7.67;;
11439;SDS011;5776;51.814;4.510;2023-11-22T08:54:49;13.70;;;8.30;;
11439;SDS011;5776;51.814;4.510;2023-11-22T08:57:17;14.10;;;9.00;;
11439;SDS011;5776;51.814;4.510;2023-11-22T08:59:44;11.30;;;6.80;;
11439;SDS011;5776;51.814;4.510;2023-11-22T09:02:09;9.37;;;5.73;;
11439;SDS011;5776;51.814;4.510;2023-11-22T09:04:41;9.27;;;5.87;;
11439;SDS011;5776;51.814;4.510;2023-11-22T09:07:07;15.20;;;9.07;;
11439;SDS011;5776;51.814;4.510;2023-11-22T09:09:35;18.37;;;9.33;;
11439;SDS011;5776;51.814;4.510;2023-11-22T09:12:01;14.80;;;9.10;;
11439;SDS011;5776;51.814;4.510;2023-11-22T09:14:27;14.47;;;8.43;;
11439;SDS011;5776;51.814;4.510;2023-11-22T09:16:54;18.47;;;9.97;;
11439;SDS011;5776;51.814;4.510;2023-11-22T09:19:23;17.47;;;10.43;;
11439;SDS011;5776;51.814;4.510;2023-11-22T09:21:50;20.13;;;10.23;;
11439;SDS011;5776;51.814;4.510;2023-11-22T09:24:17;21.43;;;10.80;;
11439;SDS011;5776;51.814;4.510;2023-11-22T09:26:43;15.60;;;9.57;;
11439;SDS011;5776;51.814;4.510;2023-11-22T09:29:12;17.17;;;9.07;;
11439;SDS011;5776;51.814;4.510;2023-11-22T09:31:40;17.50;;;10.07;;
11439;SDS011;5776;51.814;4.510;2023-11-22T09:34:07;18.30;;;10.50;;
11439;SDS011;5776;51.814;4.510;2023-11-22T09:36:33;14.93;;;9.63;;
11439;SDS011;5776;51.814;4.510;2023-11-22T09:39:00;15.03;;;9.60;;
11439;SDS011;5776;51.814;4.510;2023-11-22T09:41:27;16.37;;;9.33;;
11439;SDS011;5776;51.814;4.510;2023-11-22T09:43:54;15.60;;;9.70;;
11439;SDS011;5776;51.814;4.510;2023-11-22T09:46:22;14.97;;;8.97;;
11439;SDS011;5776;51.814;4.510;2023-11-22T09:48:49;17.60;;;10.20;;
11439;SDS011;5776;51.814;4.510;2023-11-22T09:51:23;18.60;;;11.20;;
11439;SDS011;5776;51.814;4.510;2023-11-22T09:56:25;16.67;;;9.77;;
11439;SDS011;5776;51.814;4.510;2023-11-22T09:58:55;17.20;;;10.07;;
11439;SDS011;5776;51.814;4.510;2023-11-22T10:01:25;18.63;;;10.80;;
11439;SDS011;5776;51.814;4.510;2023-11-22T10:03:59;16.80;;;10.50;;
11439;SDS011;5776;51.814;4.510;2023-11-22T10:06:25;16.97;;;10.03;;
11439;SDS011;5776;51.814;4.510;2023-11-22T10:08:51;16.70;;;9.87;;
11439;SDS011;5776;51.814;4.510;2023-11-22T10:11:18;18.50;;;9.87;;
11439;SDS011;5776;51.814;4.510;2023-11-22T10:13:51;17.93;;;10.57;;
11439;SDS011;5776;51.814;4.510;2023-11-22T10:16:17;17.97;;;10.43;;
11439;SDS011;5776;51.814;4.510;2023-11-22T10:18:46;15.40;;;9.90;;
11439;SDS011;5776;51.814;4.510;2023-11-22T10:21:19;16.97;;;10.47;;
11439;SDS011;5776;51.814;4.510;2023-11-22T10:23:47;17.70;;;10.17;;
11439;SDS011;5776;51.814;4.510;2023-11-22T10:26:14;14.57;;;9.90;;
11439;SDS011;5776;51.814;4.510;2023-11-22T10:28:43;16.13;;;10.17;;
11439;SDS011;5776;51.814;4.510;2023-11-22T10:31:12;16.40;;;9.43;;
11439;SDS011;5776;51.814;4.510;2023-11-22T10:33:40;18.17;;;10.57;;
11439;SDS011;5776;51.814;4.510;2023-11-22T10:36:10;17.00;;;10.90;;
11439;SDS011;5776;51.814;4.510;2023-11-22T10:38:37;19.43;;;12.07;;
11439;SDS011;5776;51.814;4.510;2023-11-22T10:41:04;15.57;;;10.10;;
11439;SDS011;5776;51.814;4.510;2023-11-22T10:43:30;16.90;;;10.20;;
11439;SDS011;5776;51.814;4.510;2023-11-22T10:45:58;17.00;;;10.77;;
11439;SDS011;5776;51.814;4.510;2023-11-22T10:48:24;15.53;;;10.47;;
11439;SDS011;5776;51.814;4.510;2023-11-22T10:50:51;16.13;;;10.33;;
11439;SDS011;5776;51.814;4.510;2023-11-22T10:53:21;17.63;;;10.97;;
11439;SDS011;5776;51.814;4.510;2023-11-22T10:56:01;13.77;;;9.00;;
11439;SDS011;5776;51.814;4.510;2023-11-22T10:58:31;15.57;;;9.63;;
11439;SDS011;5776;51.814;4.510;2023-11-22T11:00:58;16.53;;;10.13;;
11439;SDS011;5776;51.814;4.510;2023-11-22T11:03:26;17.13;;;10.33;;
11439;SDS011;5776;51.814;4.510;2023-11-22T11:06:01;14.60;;;9.00;;
11439;SDS011;5776;51.814;4.510;2023-11-22T11:08:33;17.47;;;10.00;;
11439;SDS011;5776;51.814;4.510;2023-11-22T11:11:04;15.77;;;10.10;;
11439;SDS011;5776;51.814;4.510;2023-11-22T11:13:31;16.33;;;10.00;;
11439;SDS011;5776;51.814;4.510;2023-11-22T11:15:58;17.27;;;9.40;;
11439;SDS011;5776;51.814;4.510;2023-11-22T11:18:24;18.07;;;10.53;;
11439;SDS011;5776;51.814;4.510;2023-11-22T11:20:57;17.57;;;10.33;;
11439;SDS011;5776;51.814;4.510;2023-11-22T11:23:25;15.63;;;9.70;;
11439;SDS011;5776;51.814;4.510;2023-11-22T11:25:54;14.67;;;9.10;;
11439;SDS011;5776;51.814;4.510;2023-11-22T11:28:21;14.87;;;9.67;;
11439;SDS011;5776;51.814;4.510;2023-11-22T11:30:51;13.17;;;8.83;;
11439;SDS011;5776;51.814;4.510;2023-11-22T11:33:19;12.97;;;8.80;;
11439;SDS011;5776;51.814;4.510;2023-11-22T11:35:52;16.47;;;9.77;;
11439;SDS011;5776;51.814;4.510;2023-11-22T11:38:21;16.23;;;10.20;;
11439;SDS011;5776;51.814;4.510;2023-11-22T11:40:48;14.87;;;10.20;;
11439;SDS011;5776;51.814;4.510;2023-11-22T11:43:14;15.83;;;9.10;;
11439;SDS011;5776;51.814;4.510;2023-11-22T11:45:42;16.80;;;9.20;;
11439;SDS011;5776;51.814;4.510;2023-11-22T11:48:12;20.83;;;9.80;;
11439;SDS011;5776;51.814;4.510;2023-11-22T11:50:42;15.87;;;9.73;;
11439;SDS011;5776;51.814;4.510;2023-11-22T11:53:09;15.77;;;9.70;;
11439;SDS011;5776;51.814;4.510;2023-11-22T11:55:38;15.23;;;9.03;;
11439;SDS011;5776;51.814;4.510;2023-11-22T11:58:05;14.37;;;9.50;;
11439;SDS011;5776;51.814;4.510;2023-11-22T12:00:37;13.97;;;9.23;;
11439;SDS011;5776;51.814;4.510;2023-11-22T12:03:09;14.57;;;9.47;;
11439;SDS011;5776;51.814;4.510;2023-11-22T12:05:38;12.83;;;7.80;;
11439;SDS011;5776;51.814;4.510;2023-11-22T12:08:04;14.47;;;9.30;;
11439;SDS011;5776;51.814;4.510;2023-11-22T12:10:30;16.20;;;9.37;;
11439;SDS011;5776;51.814;4.510;2023-11-22T12:12:57;12.97;;;8.30;;
11439;SDS011;5776;51.814;4.510;2023-11-22T12:15:24;15.47;;;9.73;;
11439;SDS011;5776;51.814;4.510;2023-11-22T12:17:50;16.63;;;10.43;;
11439;SDS011;5776;51.814;4.510;2023-11-22T12:20:19;20.03;;;11.03;;
11439;SDS011;5776;51.814;4.510;2023-11-22T12:22:47;16.43;;;10.17;;
11439;SDS011;5776;51.814;4.510;2023-11-22T12:25:14;15.97;;;10.13;;
11439;SDS011;5776;51.814;4.510;2023-11-22T12:27:43;19.17;;;10.47;;
11439;SDS011;5776;51.814;4.510;2023-11-22T12:33:10;17.50;;;10.30;;
11439;SDS011;5776;51.814;4.510;2023-11-22T12:35:38;15.60;;;9.17;;
11439;SDS011;5776;51.814;4.510;2023-11-22T12:38:05;15.13;;;9.90;;
11439;SDS011;5776;51.814;4.510;2023-11-22T12:40:32;16.27;;;9.70;;
11439;SDS011;5776;51.814;4.510;2023-11-22T12:42:59;17.00;;;10.53;;
11439;SDS011;5776;51.814;4.510;2023-11-22T12:45:28;16.80;;;10.87;;
11439;SDS011;5776;51.814;4.510;2023-11-22T12:47:55;21.07;;;12.57;;
11439;SDS011;5776;51.814;4.510;2023-11-22T12:50:32;19.73;;;12.60;;
11439;SDS011;5776;51.814;4.510;2023-11-22T12:53:08;21.27;;;12.73;;
11439;SDS011;5776;51.814;4.510;2023-11-22T12:55:37;20.57;;;12.73;;
11439;SDS011;5776;51.814;4.510;2023-11-22T12:58:13;29.23;;;13.73;;
11439;SDS011;5776;51.814;4.510;2023-11-22T13:00:42;22.20;;;13.67;;
11439;SDS011;5776;51.814;4.510;2023-11-22T13:03:09;24.93;;;13.70;;
11439;SDS011;5776;51.814;4.510;2023-11-22T13:05:36;23.63;;;13.63;;
11439;SDS011;5776;51.814;4.510;2023-11-22T13:08:03;22.03;;;13.87;;
11439;SDS011;5776;51.814;4.510;2023-11-22T13:10:32;25.00;;;13.47;;
11439;SDS011;5776;51.814;4.510;2023-11-22T13:12:58;20.73;;;12.80;;
11439;SDS011;5776;51.814;4.510;2023-11-22T13:15:24;21.03;;;12.87;;
11439;SDS011;5776;51.814;4.510;2023-11-22T13:17:54;18.07;;;12.17;;
11439;SDS011;5776;51.814;4.510;2023-11-22T13:20:23;18.97;;;12.73;;
11439;SDS011;5776;51.814;4.510;2023-11-22T13:23:09;22.73;;;12.90;;
11439;SDS011;5776;51.814;4.510;2023-11-22T13:25:37;19.70;;;12.70;;
11439;SDS011;5776;51.814;4.510;2023-11-22T13:28:03;18.57;;;10.73;;
11439;SDS011;5776;51.814;4.510;2023-11-22T13:30:31;16.77;;;9.73;;
11439;SDS011;5776;51.814;4.510;2023-11-22T13:32:57;17.40;;;9.30;;
11439;SDS011;5776;51.814;4.510;2023-11-22T13:35:23;18.57;;;9.23;;
11439;SDS011;5776;51.814;4.510;2023-11-22T13:37:53;18.37;;;10.27;;
11439;SDS011;5776;51.814;4.510;2023-11-22T13:40:20;17.40;;;10.50;;
11439;SDS011;5776;51.814;4.510;2023-11-22T13:42:52;14.57;;;9.53;;
11439;SDS011;5776;51.814;4.510;2023-11-22T13:45:18;15.90;;;8.97;;
11439;SDS011;5776;51.814;4.510;2023-11-22T13:47:46;16.67;;;9.80;;
11439;SDS011;5776;51.814;4.510;2023-11-22T13:50:14;17.90;;;10.50;;
11439;SDS011;5776;51.814;4.510;2023-11-22T13:52:44;18.60;;;11.27;;
11439;SDS011;5776;51.814;4.510;2023-11-22T13:55:12;17.00;;;11.13;;
11439;SDS011;5776;51.814;4.510;2023-11-22T13:57:38;20.20;;;10.20;;
11439;SDS011;5776;51.814;4.510;2023-11-22T14:00:05;21.03;;;10.83;;
11439;SDS011;5776;51.814;4.510;2023-11-22T14:02:45;17.73;;;11.33;;
11439;SDS011;5776;51.814;4.510;2023-11-22T14:05:11;18.70;;;10.93;;
11439;SDS011;5776;51.814;4.510;2023-11-22T14:07:38;18.90;;;12.17;;
11439;SDS011;5776;51.814;4.510;2023-11-22T14:10:04;21.63;;;12.13;;
11439;SDS011;5776;51.814;4.510;2023-11-22T14:12:31;21.07;;;12.57;;
11439;SDS011;5776;51.814;4.510;2023-11-22T14:14:58;22.23;;;12.60;;
11439;SDS011;5776;51.814;4.510;2023-11-22T14:17:25;21.60;;;13.40;;
11439;SDS011;5776;51.814;4.510;2023-11-22T14:19:52;20.67;;;12.37;;
11439;SDS011;5776;51.814;4.510;2023-11-22T14:22:18;23.47;;;10.87;;
11439;SDS011;5776;51.814;4.510;2023-11-22T14:24:46;20.90;;;11.97;;
11439;SDS011;5776;51.814;4.510;2023-11-22T14:27:13;19.50;;;11.87;;
11439;SDS011;5776;51.814;4.510;2023-11-22T14:29:38;20.20;;;11.77;;
11439;SDS011;5776;51.814;4.510;2023-11-22T14:32:06;24.37;;;12.83;;
11439;SDS011;5776;51.814;4.510;2023-11-22T14:34:32;27.47;;;14.33;;
11439;SDS011;5776;51.814;4.510;2023-11-22T14:36:59;31.43;;;16.83;;
11439;SDS011;5776;51.814;4.510;2023-11-22T14:39:25;34.10;;;17.87;;
11439;SDS011;5776;51.814;4.510;2023-11-22T14:41:52;29.40;;;16.23;;
11439;SDS011;5776;51.814;4.510;2023-11-22T14:44:19;31.33;;;16.63;;
11439;SDS011;5776;51.814;4.510;2023-11-22T14:46:46;29.83;;;16.40;;
11439;SDS011;5776;51.814;4.510;2023-11-22T14:49:13;32.47;;;16.53;;
11439;SDS011;5776;51.814;4.510;2023-11-22T14:51:39;31.47;;;16.83;;
11439;SDS011;5776;51.814;4.510;2023-11-22T14:54:05;34.33;;;17.27;;
11439;SDS011;5776;51.814;4.510;2023-11-22T14:56:32;31.87;;;16.63;;